Time;durP1;ratioP1;P1;durP2;ratioP2;P2;SDS_P1;SDS_P2;PMS_P1;PMS_P2;Temp;Humidity;BMP_temperature;BMP_pressure;BME280_temperature;BME280_humidity;BME280_pressure;Samples;Min_cycle;Max_cycle;Signal;HPM_P1;HPM_P2
2023/05/22 00:00:55;;;;;;;4.82;1.70;;;;;;;20.75;42.35;101626.44;4849993;29;20054;-74
2023/05/22 00:03:24;;;;;;;4.70;2.35;;;;;;;20.53;42.19;101636.03;4870426;29;20101;-76
2023/05/22 00:05:57;;;;;;;5.22;1.98;;;;;;;20.40;43.72;101644.75;4859486;29;20092;-79
2023/05/22 00:08:26;;;;;;;4.53;2.00;;;;;;;20.21;43.04;101644.69;4858605;29;20077;-76
2023/05/22 00:10:54;;;;;;;5.22;1.60;;;;;;;20.10;43.41;101643.75;4860481;29;20488;-74
2023/05/22 00:13:23;;;;;;;6.30;2.22;;;;;;;19.94;43.16;101644.56;4862870;29;20116;-74
2023/05/22 00:15:51;;;;;;;5.30;2.05;;;;;;;19.79;43.92;101641.00;4866228;29;20061;-75
2023/05/22 00:18:20;;;;;;;3.70;1.92;;;;;;;19.67;43.71;101646.13;4856418;29;20057;-76
2023/05/22 00:20:49;;;;;;;6.68;1.67;;;;;;;19.58;44.15;101636.44;4863633;29;20474;-80
2023/05/22 00:23:21;;;;;;;7.30;2.22;;;;;;;19.57;44.72;101639.06;4858150;29;20054;-78
2023/05/22 00:25:50;;;;;;;6.97;2.05;;;;;;;19.54;43.83;101644.28;4863694;29;20648;-73
2023/05/22 00:28:18;;;;;;;4.05;1.70;;;;;;;19.51;44.57;101647.75;4859159;29;20519;-82
2023/05/22 00:30:47;;;;;;;3.08;1.63;;;;;;;19.45;43.70;101646.00;4854871;29;20057;-73
2023/05/22 00:33:15;;;;;;;10.65;1.92;;;;;;;19.46;44.26;101646.84;4850518;29;20057;-81
2023/05/22 00:35:44;;;;;;;4.55;1.48;;;;;;;19.49;43.22;101648.63;4856832;29;20053;-80
2023/05/22 00:38:31;;;;;;;2.50;1.45;;;;;;;19.50;44.45;101639.91;4859189;29;20046;-78
2023/05/22 00:41:00;;;;;;;4.38;1.73;;;;;;;19.50;43.80;101638.13;4857332;29;20609;-79
2023/05/22 00:43:29;;;;;;;5.85;1.67;;;;;;;19.49;45.12;101638.13;4856577;29;20114;-81
2023/05/22 00:45:57;;;;;;;3.45;1.52;;;;;;;19.51;45.41;101649.50;4853080;29;20053;-82
2023/05/22 00:48:26;;;;;;;4.03;1.60;;;;;;;19.51;44.65;101645.13;4856733;29;20050;-81
2023/05/22 00:50:56;;;;;;;3.85;1.52;;;;;;;19.49;42.77;101640.75;4864309;29;20056;-78
2023/05/22 00:53:26;;;;;;;5.70;1.38;;;;;;;19.43;43.38;101645.09;4857888;29;20065;-80
2023/05/22 00:55:59;;;;;;;5.68;1.50;;;;;;;19.39;44.15;101645.94;4860040;29;20128;-78
2023/05/22 00:58:28;;;;;;;4.13;1.77;;;;;;;19.28;43.03;101642.34;4859018;29;20053;-79
2023/05/22 01:00:57;;;;;;;3.42;1.65;;;;;;;19.23;43.74;101642.31;4849527;29;20456;-77
2023/05/22 01:03:27;;;;;;;3.90;1.52;;;;;;;19.21;45.17;101641.41;4858632;29;20049;-76
2023/05/22 01:05:56;;;;;;;4.07;1.33;;;;;;;19.23;44.64;101638.81;4857466;29;20057;-77
2023/05/22 01:08:25;;;;;;;5.57;1.65;;;;;;;19.23;44.91;101634.44;4859130;29;20057;-76
2023/05/22 01:10:58;;;;;;;3.63;1.55;;;;;;;19.21;45.00;101632.69;4858544;29;20058;-78
2023/05/22 01:13:33;;;;;;;4.35;1.75;;;;;;;19.20;45.36;101630.94;4858649;29;20057;-76
2023/05/22 01:16:10;;;;;;;3.22;1.73;;;;;;;19.17;44.46;101634.41;4847610;29;20054;-76
2023/05/22 01:18:47;;;;;;;3.90;1.50;;;;;;;19.15;44.79;101630.91;4854137;29;20138;-75
2023/05/22 01:21:22;;;;;;;7.93;1.85;;;;;;;19.15;45.31;101630.00;4860797;29;20053;-75
2023/05/22 01:24:50;;;;;;;5.55;2.15;;;;;;;19.05;42.94;101632.53;4856886;29;20064;-75
2023/05/22 01:27:43;;;;;;;5.97;1.17;;;;;;;19.01;45.19;101641.28;4772272;29;20055;-74
2023/05/22 01:30:45;;;;;;;6.20;2.17;;;;;;;18.99;44.09;101634.25;4780461;29;20058;-74
2023/05/22 01:33:16;;;;;;;6.97;1.20;;;;;;;18.94;44.19;101636.81;4830126;29;20049;-77
2023/05/22 01:35:49;;;;;;;6.57;1.30;;;;;;;18.91;43.80;101641.16;4864330;29;20052;-77
2023/05/22 01:38:18;;;;;;;2.80;1.30;;;;;;;18.86;44.79;101635.88;4859123;29;20600;-75
2023/05/22 01:40:48;;;;;;;4.40;1.35;;;;;;;18.82;45.11;101636.72;4863407;29;20145;-76
2023/05/22 01:43:18;;;;;;;2.55;1.30;;;;;;;18.75;43.12;101635.72;4858714;29;20062;-74
2023/05/22 01:45:49;;;;;;;5.28;1.33;;;;;;;18.72;42.53;101634.84;4859957;29;20046;-75
2023/05/22 01:48:17;;;;;;;2.42;1.05;;;;;;;18.61;43.30;101638.22;4853845;29;20106;-74
2023/05/22 01:50:48;;;;;;;2.50;0.75;;;;;;;18.57;43.80;101643.41;4854950;29;20072;-74
2023/05/22 01:53:25;;;;;;;3.45;1.05;;;;;;;18.50;44.18;101645.09;4862610;29;20057;-74
2023/05/22 01:55:59;;;;;;;2.92;1.20;;;;;;;18.48;44.31;101649.41;4859713;29;20053;-74
2023/05/22 01:58:32;;;;;;;2.28;1.08;;;;;;;18.41;43.75;101655.47;4866837;29;20056;-72
2023/05/22 02:01:02;;;;;;;2.53;1.05;;;;;;;18.34;43.78;101653.63;4856048;29;20049;-75
2023/05/22 02:03:34;;;;;;;2.85;0.98;;;;;;;18.33;43.75;101657.13;4853973;29;20523;-76
2023/05/22 02:06:08;;;;;;;2.25;1.10;;;;;;;18.21;43.38;101653.50;4856522;29;20057;-74
2023/05/22 02:08:39;;;;;;;2.17;1.30;;;;;;;18.20;44.95;101656.09;4850473;29;20064;-75
2023/05/22 02:11:09;;;;;;;5.20;0.90;;;;;;;18.17;44.94;101651.69;4855399;29;20060;-73
2023/05/22 02:13:39;;;;;;;2.38;0.90;;;;;;;18.18;44.59;101653.44;4846942;29;20073;-76
2023/05/22 02:16:10;;;;;;;2.83;0.80;;;;;;;18.10;44.58;101641.13;4858337;29;20068;-75
2023/05/22 02:18:40;;;;;;;1.55;0.80;;;;;;;18.13;44.21;101660.38;4862107;29;20096;-76
2023/05/22 02:21:12;;;;;;;2.72;1.02;;;;;;;18.07;44.09;101655.03;4860792;29;20113;-75
2023/05/22 02:23:40;;;;;;;1.92;0.85;;;;;;;18.03;44.46;101653.25;4852978;29;20139;-75
2023/05/22 02:26:09;;;;;;;3.90;0.90;;;;;;;18.00;43.64;101654.09;4854789;29;20113;-75
2023/05/22 02:28:38;;;;;;;2.28;0.98;;;;;;;18.00;43.16;101661.06;4865302;29;20079;-72
2023/05/22 02:31:08;;;;;;;0.93;0.65;;;;;;;17.91;42.71;101664.47;4850243;29;20049;-75
2023/05/22 02:33:36;;;;;;;2.83;1.05;;;;;;;17.90;44.28;101670.53;4857287;29;20053;-74
2023/05/22 02:36:09;;;;;;;3.53;1.33;;;;;;;17.97;43.21;101672.38;4856114;29;20049;-74
2023/05/22 02:38:38;;;;;;;5.28;1.45;;;;;;;18.04;43.71;101664.63;4850322;29;20056;-76
2023/05/22 02:41:07;;;;;;;5.50;1.80;;;;;;;18.02;42.90;101664.59;4852103;29;20071;-75
2023/05/22 02:43:35;;;;;;;4.18;1.17;;;;;;;18.05;42.50;101674.22;4858771;29;20053;-72
2023/05/22 02:46:04;;;;;;;5.93;1.20;;;;;;;18.03;43.58;101679.44;4853899;29;20049;-74
2023/05/22 02:48:34;;;;;;;4.25;1.42;;;;;;;18.03;42.96;101684.69;4854011;29;20062;-75
2023/05/22 02:51:02;;;;;;;1.95;0.90;;;;;;;18.04;44.12;101677.72;4856843;29;21049;-73
2023/05/22 02:53:32;;;;;;;4.25;0.98;;;;;;;18.08;43.21;101677.75;4849876;29;20066;-73
2023/05/22 02:56:00;;;;;;;5.35;1.35;;;;;;;18.08;41.25;101675.16;4852026;29;20157;-75
2023/05/22 02:58:29;;;;;;;2.42;0.90;;;;;;;18.02;40.75;101677.69;4850971;29;20073;-76
2023/05/22 03:00:58;;;;;;;3.50;0.95;;;;;;;17.97;41.75;101681.97;4848369;29;20061;-75
2023/05/22 03:03:28;;;;;;;6.20;1.40;;;;;;;17.94;41.28;101677.59;4855185;29;20659;-74
2023/05/22 03:06:05;;;;;;;2.97;0.88;;;;;;;17.90;41.38;101688.00;4853403;29;20515;-73
2023/05/22 03:08:37;;;;;;;1.92;0.80;;;;;;;17.86;40.89;101687.06;4856194;29;20089;-71
2023/05/22 03:11:05;;;;;;;2.67;0.93;;;;;;;17.83;42.23;101681.78;4853248;29;20049;-72
2023/05/22 03:13:34;;;;;;;3.25;1.15;;;;;;;17.77;42.66;101687.78;4856006;29;20049;-72
2023/05/22 03:16:02;;;;;;;2.08;0.75;;;;;;;17.70;41.13;101685.03;4853949;29;20075;-73
2023/05/22 03:18:31;;;;;;;3.10;1.10;;;;;;;17.67;43.96;101687.63;4856371;29;20060;-74
2023/05/22 03:24:22;;;;;;;6.63;1.10;;;;;;;17.55;42.56;101690.94;4850905;29;20057;-74
2023/05/22 03:26:50;;;;;;;1.63;1.08;;;;;;;17.50;43.29;101693.47;4850448;29;20129;-74
2023/05/22 03:29:19;;;;;;;3.78;1.25;;;;;;;17.46;42.69;101693.41;4855064;29;20109;-73
2023/05/22 03:31:48;;;;;;;2.55;0.93;;;;;;;17.42;42.05;101699.44;4841156;29;20136;-73
2023/05/22 03:34:16;;;;;;;5.57;1.55;;;;;;;17.33;42.52;101700.16;4857271;29;20562;-74
2023/05/22 03:36:47;;;;;;;3.08;1.08;;;;;;;17.29;42.48;101706.19;4851511;29;20057;-74
2023/05/22 03:39:15;;;;;;;2.30;1.10;;;;;;;17.23;42.51;101699.13;4865542;29;20113;-74
2023/05/22 03:41:44;;;;;;;1.65;0.95;;;;;;;17.19;43.00;101702.53;4858542;29;20057;-74
2023/05/22 03:44:12;;;;;;;1.58;0.85;;;;;;;17.14;42.64;101709.44;4858982;29;20046;-75
2023/05/22 03:46:41;;;;;;;2.92;1.17;;;;;;;17.11;43.97;101709.34;4856262;29;20576;-74
2023/05/22 03:49:09;;;;;;;4.50;1.02;;;;;;;17.04;43.51;101708.41;4874127;29;20392;-74
2023/05/22 03:51:38;;;;;;;4.50;1.33;;;;;;;16.95;43.03;101711.72;4867553;29;20113;-74
2023/05/22 03:54:09;;;;;;;2.17;1.00;;;;;;;16.91;44.22;101712.50;4868221;29;20523;-76
2023/05/22 03:56:38;;;;;;;2.45;1.13;;;;;;;16.87;44.25;101715.91;4852212;29;20571;-75
2023/05/22 03:59:06;;;;;;;3.20;1.20;;;;;;;16.84;44.18;101715.84;4861834;29;20076;-74
2023/05/22 04:01:37;;;;;;;3.50;0.98;;;;;;;16.82;43.90;101714.94;4859030;29;20053;-76
2023/05/22 04:04:06;;;;;;;4.68;1.10;;;;;;;16.77;43.74;101713.94;4857005;29;20057;-77
2023/05/22 04:06:41;;;;;;;3.13;1.10;;;;;;;16.75;44.40;101726.09;4849102;29;20053;-76
2023/05/22 04:09:12;;;;;;;1.70;1.02;;;;;;;16.71;43.86;101729.50;4857787;29;20468;-73
2023/05/22 04:11:41;;;;;;;3.65;0.88;;;;;;;16.67;44.90;101727.66;4856385;29;20058;-76
2023/05/22 04:14:10;;;;;;;2.72;1.08;;;;;;;16.61;44.93;101740.63;4858833;29;20050;-76
2023/05/22 04:16:39;;;;;;;9.05;1.00;;;;;;;16.56;44.83;101745.75;4851220;29;20057;-74
2023/05/22 04:19:08;;;;;;;3.83;1.38;;;;;;;16.52;44.68;101747.41;4865888;29;20053;-75
2023/05/22 04:21:37;;;;;;;6.95;1.90;;;;;;;16.46;44.88;101752.50;4859352;29;20518;-76
2023/05/22 04:24:08;;;;;;;5.75;1.15;;;;;;;16.41;44.95;101753.28;4853850;29;20057;-75
2023/05/22 04:26:38;;;;;;;1.52;0.80;;;;;;;16.36;45.46;101757.53;4858753;29;20068;-74
2023/05/22 04:29:13;;;;;;;2.42;0.85;;;;;;;16.28;45.21;101752.09;4862536;29;20101;-76
2023/05/22 04:31:41;;;;;;;4.53;1.15;;;;;;;16.23;45.28;101758.97;4856379;29;20140;-79
2023/05/22 04:34:13;;;;;;;2.63;1.23;;;;;;;16.05;45.83;101738.53;4851876;29;20614;-75
2023/05/22 04:36:43;;;;;;;1.67;0.90;;;;;;;16.06;47.45;101759.47;4856618;29;20061;-76
2023/05/22 04:39:13;;;;;;;3.08;0.85;;;;;;;15.98;46.96;101770.56;4852720;29;20138;-79
2023/05/22 04:41:44;;;;;;;5.03;1.17;;;;;;;15.90;47.98;101771.28;4858542;29;20058;-76
2023/05/22 04:44:13;;;;;;;3.60;1.13;;;;;;;15.83;48.04;101771.09;4853290;29;20108;-75
2023/05/22 04:46:42;;;;;;;4.03;1.23;;;;;;;15.74;49.08;101771.75;4859909;29;20061;-77
2023/05/22 04:49:11;;;;;;;2.05;1.40;;;;;;;15.66;49.12;101784.56;4851036;29;20054;-77
2023/05/22 04:51:40;;;;;;;1.38;0.60;;;;;;;15.60;49.82;101789.66;4861312;29;20057;-77
2023/05/22 04:54:08;;;;;;;1.48;0.80;;;;;;;15.51;50.06;101789.41;4854907;29;20097;-76
2023/05/22 04:56:37;;;;;;;4.55;0.95;;;;;;;15.47;50.05;101792.78;4852596;29;20057;-77
2023/05/22 04:59:08;;;;;;;2.83;1.13;;;;;;;15.41;50.51;101787.38;4854695;29;20057;-77
2023/05/22 05:01:37;;;;;;;4.25;0.80;;;;;;;15.36;51.30;101799.44;4854883;29;20061;-77
2023/05/22 05:04:05;;;;;;;2.40;0.77;;;;;;;15.28;51.04;101791.41;4854829;29;20061;-74
2023/05/22 05:06:36;;;;;;;3.03;1.23;;;;;;;15.23;51.08;101799.13;4852689;29;20053;-76
2023/05/22 05:09:05;;;;;;;1.77;0.95;;;;;;;15.15;51.37;101805.84;4858931;29;20126;-76
2023/05/22 05:11:33;;;;;;;4.85;1.05;;;;;;;15.12;52.14;101807.47;4853824;29;20516;-76
2023/05/22 05:14:02;;;;;;;2.50;1.10;;;;;;;15.07;52.53;101817.75;4855348;29;20053;-77
2023/05/22 05:16:32;;;;;;;3.17;1.20;;;;;;;15.01;52.56;101812.41;4858081;29;20137;-77
2023/05/22 05:19:02;;;;;;;2.08;1.15;;;;;;;14.82;52.63;101796.25;4855286;29;20057;-77
2023/05/22 05:21:31;;;;;;;3.90;0.98;;;;;;;14.84;53.56;101810.19;4852920;29;20140;-77
2023/05/22 05:24:00;;;;;;;5.35;1.27;;;;;;;14.80;53.58;101813.53;4857375;29;20049;-78
2023/05/22 05:26:28;;;;;;;1.83;1.00;;;;;;;14.75;54.01;101815.16;4856011;29;20094;-77
2023/05/22 05:28:57;;;;;;;6.00;0.95;;;;;;;14.68;53.50;101813.16;4845773;29;20046;-77
2023/05/22 05:31:25;;;;;;;3.72;2.00;;;;;;;14.62;54.46;101810.41;4849528;29;20122;-77
2023/05/22 05:33:57;;;;;;;5.63;0.85;;;;;;;14.59;54.81;101815.50;4858591;29;20105;-77
2023/05/22 05:36:25;;;;;;;1.60;1.05;;;;;;;14.56;54.63;101818.03;4854794;29;20134;-77
2023/05/22 05:38:55;;;;;;;3.38;0.93;;;;;;;14.50;54.95;101813.50;4852339;29;20053;-77
2023/05/22 05:41:23;;;;;;;3.03;1.08;;;;;;;14.47;55.59;101810.78;4858724;29;20080;-77
2023/05/22 05:43:52;;;;;;;3.38;1.00;;;;;;;14.42;56.62;101810.63;4852760;29;20472;-77
2023/05/22 05:46:21;;;;;;;2.75;1.08;;;;;;;14.39;55.77;101804.47;4852547;29;20084;-78
2023/05/22 05:48:49;;;;;;;2.03;1.00;;;;;;;14.35;56.57;101818.22;4857928;29;20554;-77
2023/05/22 05:51:20;;;;;;;2.13;0.90;;;;;;;14.32;55.88;101818.13;4845138;29;20088;-77
2023/05/22 05:53:49;;;;;;;2.55;1.00;;;;;;;14.25;56.55;101819.66;4852452;29;20547;-77
2023/05/22 05:56:18;;;;;;;4.25;1.42;;;;;;;14.18;56.18;101820.31;4854137;29;20053;-77
2023/05/22 05:58:48;;;;;;;6.95;1.23;;;;;;;14.14;56.38;101821.03;4857542;29;20116;-77
2023/05/22 06:01:17;;;;;;;3.08;1.40;;;;;;;14.10;56.63;101812.25;4845584;29;20773;-77
2023/05/22 06:03:46;;;;;;;1.75;0.73;;;;;;;14.03;56.87;101813.75;4849738;29;20084;-77
2023/05/22 06:06:16;;;;;;;1.40;0.82;;;;;;;13.97;56.59;101812.66;4855448;29;20061;-76
2023/05/22 06:08:46;;;;;;;4.32;1.38;;;;;;;13.92;57.00;101822.94;4854133;29;21140;-77
2023/05/22 06:11:15;;;;;;;3.25;0.90;;;;;;;13.90;57.21;101814.19;4855087;29;20793;-77
2023/05/22 06:13:43;;;;;;;3.03;0.88;;;;;;;13.89;57.86;101821.97;4858564;29;20041;-76
2023/05/22 06:16:12;;;;;;;3.63;1.15;;;;;;;13.84;58.24;101816.59;4859150;29;20049;-77
2023/05/22 06:18:41;;;;;;;2.30;1.00;;;;;;;13.79;58.18;101813.84;4851012;29;20103;-77
2023/05/22 06:21:09;;;;;;;4.45;1.65;;;;;;;13.76;58.66;101820.66;4857768;29;20037;-77
2023/05/22 06:23:38;;;;;;;2.13;1.10;;;;;;;13.72;58.59;101816.19;4857101;29;20041;-77
2023/05/22 06:26:09;;;;;;;4.57;1.33;;;;;;;13.68;59.26;101819.53;4849646;29;20064;-77
2023/05/22 06:28:37;;;;;;;1.80;1.10;;;;;;;13.61;59.96;101816.72;4863612;29;20076;-77
2023/05/22 06:31:08;;;;;;;6.05;0.80;;;;;;;13.55;60.69;101819.09;4847956;29;20118;-76
2023/05/22 06:33:36;;;;;;;2.60;0.90;;;;;;;13.52;60.21;101820.72;4855306;29;20065;-75
2023/05/22 06:36:05;;;;;;;1.92;1.25;;;;;;;13.51;59.93;101825.03;4859970;29;20053;-77
2023/05/22 06:38:34;;;;;;;7.22;1.35;;;;;;;13.51;60.34;101825.03;4852830;29;20057;-76
2023/05/22 06:41:02;;;;;;;3.85;1.27;;;;;;;13.49;60.42;101821.50;4863309;29;20483;-77
2023/05/22 06:43:33;;;;;;;3.33;1.10;;;;;;;13.49;61.47;101818.91;4864214;29;20053;-77
2023/05/22 06:46:04;;;;;;;1.45;0.98;;;;;;;13.40;61.84;101821.19;4857148;29;20679;-76
2023/05/22 06:48:35;;;;;;;3.80;1.30;;;;;;;13.45;62.22;101823.94;4849579;29;20064;-77
2023/05/22 06:51:04;;;;;;;4.47;1.25;;;;;;;13.44;62.56;101833.44;4858097;29;20092;-77
2023/05/22 06:53:33;;;;;;;1.60;0.90;;;;;;;13.40;62.63;101831.59;4855074;29;20519;-77
2023/05/22 06:56:01;;;;;;;1.52;0.73;;;;;;;13.39;62.70;101837.59;4852405;29;20054;-75
2023/05/22 06:58:32;;;;;;;5.32;1.30;;;;;;;13.35;62.88;101839.22;4857646;29;20496;-75
2023/05/22 07:01:00;;;;;;;4.82;1.10;;;;;;;13.32;63.10;101840.81;4848305;29;20053;-75
2023/05/22 07:03:29;;;;;;;5.97;1.25;;;;;;;13.33;62.94;101843.47;4866016;29;20048;-77
2023/05/22 07:05:58;;;;;;;3.45;1.00;;;;;;;13.35;62.83;101843.50;4855050;29;20088;-77
2023/05/22 07:08:26;;;;;;;5.60;1.00;;;;;;;13.36;63.44;101840.09;4853717;29;20053;-76
2023/05/22 07:10:55;;;;;;;4.82;0.93;;;;;;;13.36;63.88;101837.50;4866497;29;20117;-76
2023/05/22 07:13:24;;;;;;;4.07;0.90;;;;;;;13.37;63.95;101844.47;4861164;29;20026;-77
2023/05/22 07:15:54;;;;;;;1.83;0.90;;;;;;;13.33;65.24;101847.78;4857832;29;20130;-77
2023/05/22 07:18:22;;;;;;;3.38;0.70;;;;;;;13.29;65.44;101848.53;4851500;29;20492;-78
2023/05/22 07:20:51;;;;;;;2.97;0.90;;;;;;;13.25;66.27;101850.06;4849180;29;20045;-77
2023/05/22 07:23:19;;;;;;;4.85;1.05;;;;;;;13.26;65.71;101856.16;4849711;29;20068;-76
2023/05/22 07:25:48;;;;;;;3.55;1.40;;;;;;;13.28;67.63;101851.94;4851374;29;20054;-77
2023/05/22 07:28:17;;;;;;;1.67;0.80;;;;;;;13.30;67.65;101850.28;4854143;29;20443;-76
2023/05/22 07:30:45;;;;;;;2.50;1.17;;;;;;;13.31;68.02;101846.81;4851867;29;20136;-76
2023/05/22 07:33:15;;;;;;;3.92;1.27;;;;;;;13.32;67.74;101844.28;4857919;29;20523;-76
2023/05/22 07:35:44;;;;;;;1.92;1.10;;;;;;;13.35;67.74;101844.44;4851263;29;20110;-77
2023/05/22 07:38:12;;;;;;;3.25;1.20;;;;;;;13.38;67.20;101835.84;4852166;29;20046;-77
2023/05/22 07:40:41;;;;;;;1.52;1.00;;;;;;;13.36;65.85;101840.09;4855612;29;20058;-77
2023/05/22 07:43:10;;;;;;;3.75;1.40;;;;;;;13.35;65.68;101844.44;4858616;29;20072;-76
2023/05/22 07:45:38;;;;;;;1.67;0.90;;;;;;;13.35;65.98;101844.44;4860007;29;20102;-76
2023/05/22 07:48:07;;;;;;;1.95;0.90;;;;;;;13.35;66.22;101835.72;4852606;29;20060;-75
2023/05/22 07:50:37;;;;;;;4.60;1.08;;;;;;;13.36;65.92;101840.09;4851391;29;20101;-75
2023/05/22 07:53:06;;;;;;;3.10;0.77;;;;;;;13.39;66.76;101838.47;4853671;29;20054;-77
2023/05/22 07:55:35;;;;;;;5.07;1.42;;;;;;;13.36;66.21;101835.78;4852974;29;20046;-78
2023/05/22 07:58:04;;;;;;;5.55;1.20;;;;;;;13.38;66.69;101835.84;4859765;29;20072;-76
2023/05/22 08:00:32;;;;;;;2.53;1.38;;;;;;;13.34;67.41;101834.84;4855364;29;20057;-78
2023/05/22 08:03:01;;;;;;;2.53;1.00;;;;;;;13.32;66.51;101838.22;4860164;29;20052;-77
2023/05/22 08:05:30;;;;;;;4.63;1.08;;;;;;;13.31;65.25;101836.44;4854962;29;20232;-76
2023/05/22 08:08:01;;;;;;;3.28;1.10;;;;;;;13.35;65.09;101843.50;4869033;29;20056;-77
2023/05/22 08:10:30;;;;;;;6.33;1.23;;;;;;;13.35;63.22;101843.50;4854150;29;20050;-76
2023/05/22 08:13:01;;;;;;;2.25;1.05;;;;;;;13.36;64.21;101840.97;4853645;29;20293;-77
2023/05/22 08:15:29;;;;;;;6.63;1.58;;;;;;;13.36;64.08;101840.09;4854673;29;20057;-77
2023/05/22 08:17:58;;;;;;;2.40;0.80;;;;;;;13.36;65.08;101837.50;4857089;29;20118;-76
2023/05/22 08:20:26;;;;;;;3.63;1.17;;;;;;;13.39;67.31;101840.19;4852971;29;20053;-76
2023/05/22 08:23:04;;;;;;;4.60;1.63;;;;;;;13.39;65.70;101840.19;4863003;29;20048;-77
2023/05/22 08:25:32;;;;;;;1.48;1.00;;;;;;;13.38;64.55;101843.66;4858901;29;20065;-77
2023/05/22 08:28:01;;;;;;;3.10;1.30;;;;;;;13.40;64.15;101842.00;4856767;29;20058;-76
2023/05/22 08:30:29;;;;;;;3.63;1.23;;;;;;;13.46;64.35;101849.97;4858456;29;20097;-76
2023/05/22 08:32:58;;;;;;;3.63;1.20;;;;;;;13.50;65.02;101848.38;4857986;29;20065;-76
2023/05/22 08:35:27;;;;;;;4.05;1.05;;;;;;;13.54;65.21;101840.75;4859043;29;20049;-77
2023/05/22 08:37:55;;;;;;;1.88;0.80;;;;;;;13.55;65.59;101847.69;4851600;29;20053;-77
2023/05/22 08:40:29;;;;;;;3.72;1.23;;;;;;;13.54;66.11;101837.28;4862986;29;20500;-78
2023/05/22 08:42:58;;;;;;;4.15;1.23;;;;;;;13.57;64.36;101846.03;4865508;29;20441;-77
2023/05/22 08:45:28;;;;;;;2.60;1.35;;;;;;;13.59;62.34;101839.19;4866662;29;20064;-77
2023/05/22 08:48:00;;;;;;;4.22;1.25;;;;;;;13.59;63.17;101843.50;4854267;29;20145;-77
2023/05/22 08:50:29;;;;;;;4.25;1.60;;;;;;;13.60;62.67;101847.84;4862649;29;20049;-77
2023/05/22 08:53:01;;;;;;;7.85;1.15;;;;;;;13.60;63.31;101845.25;4854877;29;20049;-76
2023/05/22 08:55:32;;;;;;;2.17;1.08;;;;;;;13.60;63.23;101840.94;4848106;29;20141;-77
2023/05/22 08:58:01;;;;;;;6.28;1.27;;;;;;;13.61;63.26;101847.94;4858765;29;20053;-77
2023/05/22 09:00:30;;;;;;;1.88;0.80;;;;;;;13.61;63.69;101842.72;4860219;29;20081;-77
2023/05/22 09:02:59;;;;;;;2.28;1.52;;;;;;;13.62;63.93;101841.88;4860006;29;20042;-77
2023/05/22 09:05:28;;;;;;;4.32;1.35;;;;;;;13.62;62.68;101844.47;4857865;29;20054;-76
2023/05/22 09:07:57;;;;;;;2.97;1.10;;;;;;;13.61;62.71;101842.72;4860922;29;21409;-77
2023/05/22 09:10:25;;;;;;;4.20;1.13;;;;;;;13.62;64.07;101841.00;4863833;29;20117;-76
2023/05/22 09:13:08;;;;;;;2.53;1.10;;;;;;;13.59;64.69;101849.59;4857016;29;20045;-76
2023/05/22 09:15:37;;;;;;;4.97;1.33;;;;;;;13.56;67.19;101844.28;4854248;29;20050;-76
2023/05/22 09:18:06;;;;;;;4.93;1.10;;;;;;;13.48;69.41;101842.25;4858612;29;20046;-79
2023/05/22 09:20:39;;;;;;;2.72;1.85;;;;;;;13.38;70.18;101835.84;4851562;29;20053;-78
2023/05/22 09:23:18;;;;;;;;;;;;;;;13.34;70.44;101836.56;4856209;29;20679;-77
2023/05/22 09:25:47;;;;;;;4.15;1.45;;;;;;;13.31;69.59;101837.34;4846761;29;19928;-77
2023/05/22 09:28:17;;;;;;;3.30;1.13;;;;;;;13.34;70.36;101844.34;4856299;29;20061;-76
2023/05/22 09:30:50;;;;;;;2.47;1.25;;;;;;;13.35;70.52;101846.13;4855371;29;20889;-76
2023/05/22 09:33:18;;;;;;;4.32;1.85;;;;;;;13.35;70.92;101847.03;4860346;29;20154;-77
2023/05/22 09:35:48;;;;;;;4.53;1.40;;;;;;;13.32;71.07;101851.22;4866520;29;20049;-76
2023/05/22 09:38:17;;;;;;;3.75;1.30;;;;;;;13.31;71.55;101846.81;4860310;29;20573;-77
2023/05/22 09:40:46;;;;;;;6.35;1.63;;;;;;;13.31;71.96;101846.81;4860459;29;20057;-76
2023/05/22 09:43:20;;;;;;;2.80;0.93;;;;;;;13.31;71.07;101849.44;4874248;29;20093;-75
2023/05/22 09:45:49;;;;;;;6.50;1.50;;;;;;;13.27;71.66;101834.53;4882417;29;20045;-76
2023/05/22 09:48:18;;;;;;;4.13;1.30;;;;;;;13.26;71.40;101838.84;4869054;29;20061;-76
2023/05/22 09:50:49;;;;;;;2.70;1.35;;;;;;;13.25;71.36;101833.59;4854800;29;20057;-77
2023/05/22 09:53:19;;;;;;;5.50;1.17;;;;;;;13.23;71.51;101832.66;4853316;29;20053;-77
2023/05/22 09:55:49;;;;;;;3.47;1.52;;;;;;;13.23;70.95;101832.66;4861528;29;20057;-77
2023/05/22 09:58:24;;;;;;;4.97;1.17;;;;;;;13.23;71.36;101828.34;4854849;29;20072;-77
2023/05/22 10:00:56;;;;;;;2.70;1.10;;;;;;;13.16;71.02;101811.63;4856836;29;20057;-77
2023/05/22 10:03:25;;;;;;;1.92;1.10;;;;;;;13.27;71.50;101824.16;4856228;29;20049;-77
2023/05/22 10:05:56;;;;;;;3.42;1.80;;;;;;;13.29;71.60;101823.41;4861938;29;20049;-76
2023/05/22 10:08:28;;;;;;;5.65;1.27;;;;;;;13.29;71.29;101822.53;4861702;29;20072;-78
2023/05/22 10:10:57;;;;;;;;;;;;;;;13.27;71.88;101832.81;4855561;29;20564;-77
2023/05/22 10:13:28;;;;;;;4.75;1.33;;;;;;;13.27;71.89;101826.75;4857641;29;20411;-77
2023/05/22 10:15:57;;;;;;;2.75;1.55;;;;;;;13.27;71.95;101832.81;4857537;29;20592;-76
2023/05/22 10:18:27;;;;;;;5.03;1.23;;;;;;;13.30;72.83;101834.69;4856276;29;20049;-76
2023/05/22 10:20:56;;;;;;;4.30;1.40;;;;;;;13.32;72.15;101831.31;4864287;29;20055;-77
2023/05/22 10:23:27;;;;;;;3.08;1.08;;;;;;;13.34;71.45;101826.16;4850411;29;20061;-76
2023/05/22 10:25:56;;;;;;;5.47;1.23;;;;;;;13.36;71.91;101816.72;4857641;29;20644;-78
2023/05/22 10:28:44;;;;;;;3.75;0.95;;;;;;;13.39;72.08;101829.81;4857625;29;20061;-77
2023/05/22 10:31:28;;;;;;;2.55;1.02;;;;;;;13.41;72.64;101833.34;4848312;29;20129;-77
2023/05/22 10:34:00;;;;;;;6.30;1.02;;;;;;;13.42;72.50;101832.50;4859792;29;20052;-77
2023/05/22 10:36:44;;;;;;;1.65;1.20;;;;;;;13.42;72.46;101835.09;4858496;29;20105;-77
2023/05/22 10:39:33;;;;;;;6.03;1.30;;;;;;;13.44;71.69;101838.63;4852598;29;20052;-78
2023/05/22 10:42:02;;;;;;;4.13;1.50;;;;;;;13.46;71.57;101841.31;4851952;29;20057;-78
2023/05/22 10:44:34;;;;;;;2.47;1.10;;;;;;;13.46;71.23;101838.69;4852119;29;20469;-77
2023/05/22 10:47:12;;;;;;;2.65;1.33;;;;;;;13.45;71.26;101839.56;4854557;29;20053;-77
2023/05/22 10:49:45;;;;;;;5.03;1.58;;;;;;;13.43;71.78;101836.88;4848788;29;20069;-77
2023/05/22 10:52:14;;;;;;;2.50;1.13;;;;;;;13.44;71.51;101832.56;4855539;29;20049;-77
2023/05/22 10:54:44;;;;;;;2.30;1.10;;;;;;;13.45;71.43;101835.22;4857910;29;20116;-75
2023/05/22 10:57:15;;;;;;;5.78;1.15;;;;;;;13.46;71.63;101830.91;4853681;29;20046;-76
2023/05/22 10:59:48;;;;;;;4.68;1.52;;;;;;;13.46;72.08;101820.50;4855145;29;20137;-77
2023/05/22 11:02:29;;;;;;;4.00;1.30;;;;;;;13.42;71.14;101824.69;4851318;29;20062;-76
2023/05/22 11:05:27;;;;;;;5.32;1.33;;;;;;;13.39;72.51;101827.19;4854763;29;20088;-77
2023/05/22 11:08:10;;;;;;;4.50;1.05;;;;;;;13.40;73.01;101831.59;4848491;29;20046;-78
2023/05/22 11:10:57;;;;;;;6.15;1.27;;;;;;;13.40;72.47;101831.59;4854840;29;20536;-77
2023/05/22 11:13:29;;;;;;;3.28;1.38;;;;;;;13.41;72.28;101826.41;4854114;29;20061;-77
2023/05/22 11:15:59;;;;;;;3.88;1.27;;;;;;;13.41;72.58;101830.75;4852956;29;20622;-77
2023/05/22 11:18:30;;;;;;;2.78;1.15;;;;;;;13.41;72.13;101828.16;4858569;29;20050;-78
2023/05/22 11:21:01;;;;;;;5.25;1.40;;;;;;;13.41;72.72;101834.22;4853347;29;20056;-78
2023/05/22 11:23:29;;;;;;;4.03;1.50;;;;;;;13.37;73.06;101826.25;4852254;29;20110;-78
2023/05/22 11:26:17;;;;;;;6.15;1.30;;;;;;;13.39;72.36;101829.81;4858781;29;20122;-78
2023/05/22 11:28:52;;;;;;;3.53;1.70;;;;;;;13.39;73.11;101824.59;4855725;29;20049;-77
2023/05/22 11:31:26;;;;;;;3.13;1.55;;;;;;;13.40;72.94;101831.59;4853709;29;20525;-77
2023/05/22 11:33:55;;;;;;;5.97;1.30;;;;;;;13.40;74.36;101829.88;4845994;29;20053;-77
2023/05/22 11:36:24;;;;;;;4.15;1.42;;;;;;;13.38;75.60;101833.25;4853987;29;20133;-76
2023/05/22 11:38:59;;;;;;;3.50;1.23;;;;;;;13.32;75.93;101827.81;4852375;29;20046;-77
2023/05/22 11:41:32;;;;;;;3.72;1.67;;;;;;;13.24;75.95;101821.41;4859600;29;20112;-77
2023/05/22 11:44:01;;;;;;;3.28;1.02;;;;;;;13.17;76.02;101823.81;4853170;29;20049;-76
2023/05/22 11:46:31;;;;;;;4.07;1.20;;;;;;;13.11;76.82;101821.00;4857922;29;20068;-76